Terminal Aerodrome Forecast
Issued by NWS

Home | Current Version | Previous Version | Text Only | Print | Product List | Glossary On
Versions: 1 2 3 4 5 6 7 8 9 10 11 12 13 14 15 16 17 18 19
000
FTUS43 KJKL 221700
TAFSME
TAF
KSME 221740Z 2218/2318 25007KT P6SM SCT025
     FM222100 24007KT P6SM VCTS SCT025CB BKN070
     FM230600 VRB03KT 4SM BR VCSH SCT020 BKN100
     FM231400 VRB05KT P6SM VCTS SCT030CB BKN100=

USA.gov is the U.S. government's official web portal to all federal, state and local government web resources and services.